Terminal Aerodrome Forecast
Issued by NWS Wilmington, NC

Home | Current Version | Previous Version | Text Only | Print | Product List | Glossary On
Versions: 1 2 3 4 5 6 7 8 9 10 11 12 13 14 15 16 17
000
FTUS42 KILM 262300
TAFFLO
TAF
KFLO 262334Z 2700/2724 30011G15KT P6SM SCT035 BKN050 OVC120
     FM270700 33010KT P6SM FEW025
     FM271800 31009KT P6SM SKC=

USA.gov is the U.S. government's official web portal to all federal, state and local government web resources and services.